sensor_id;sensor_type;location;lat;lon;timestamp;P1;durP1;ratioP1;P2;durP2;ratioP2
4961;SDS011;2496;52.468;13.342;2023-02-15T00:02:01;35.23;;;18.53;;
4961;SDS011;2496;52.468;13.342;2023-02-15T00:04:28;40.50;;;17.90;;
4961;SDS011;2496;52.468;13.342;2023-02-15T00:07:13;34.70;;;18.87;;
4961;SDS011;2496;52.468;13.342;2023-02-15T00:09:41;32.93;;;18.00;;
4961;SDS011;2496;52.468;13.342;2023-02-15T00:12:08;35.87;;;19.80;;
4961;SDS011;2496;52.468;13.342;2023-02-15T00:14:36;42.03;;;18.60;;
4961;SDS011;2496;52.468;13.342;2023-02-15T00:17:03;40.50;;;18.40;;
4961;SDS011;2496;52.468;13.342;2023-02-15T00:19:30;36.93;;;19.70;;
4961;SDS011;2496;52.468;13.342;2023-02-15T00:21:57;35.47;;;18.40;;
4961;SDS011;2496;52.468;13.342;2023-02-15T00:24:25;33.90;;;17.10;;
4961;SDS011;2496;52.468;13.342;2023-02-15T00:26:53;33.83;;;19.43;;
4961;SDS011;2496;52.468;13.342;2023-02-15T00:29:20;38.50;;;18.97;;
4961;SDS011;2496;52.468;13.342;2023-02-15T00:31:47;35.43;;;19.70;;
4961;SDS011;2496;52.468;13.342;2023-02-15T00:34:15;39.07;;;20.63;;
4961;SDS011;2496;52.468;13.342;2023-02-15T00:36:43;40.30;;;18.43;;
4961;SDS011;2496;52.468;13.342;2023-02-15T00:39:11;45.53;;;20.27;;
4961;SDS011;2496;52.468;13.342;2023-02-15T00:41:40;34.70;;;20.30;;
4961;SDS011;2496;52.468;13.342;2023-02-15T00:44:07;43.50;;;20.97;;
4961;SDS011;2496;52.468;13.342;2023-02-15T00:46:34;44.30;;;22.37;;
4961;SDS011;2496;52.468;13.342;2023-02-15T00:49:01;32.10;;;18.80;;
4961;SDS011;2496;52.468;13.342;2023-02-15T00:51:29;41.73;;;19.10;;
4961;SDS011;2496;52.468;13.342;2023-02-15T00:53:56;44.73;;;20.30;;
4961;SDS011;2496;52.468;13.342;2023-02-15T00:56:23;38.37;;;21.10;;
4961;SDS011;2496;52.468;13.342;2023-02-15T00:58:51;35.80;;;20.17;;
4961;SDS011;2496;52.468;13.342;2023-02-15T01:01:19;38.67;;;20.40;;
4961;SDS011;2496;52.468;13.342;2023-02-15T01:03:46;41.30;;;21.40;;
4961;SDS011;2496;52.468;13.342;2023-02-15T01:06:13;38.73;;;20.90;;
4961;SDS011;2496;52.468;13.342;2023-02-15T01:08:41;41.20;;;20.80;;
4961;SDS011;2496;52.468;13.342;2023-02-15T01:11:10;45.73;;;21.03;;
4961;SDS011;2496;52.468;13.342;2023-02-15T01:13:39;41.13;;;21.60;;
4961;SDS011;2496;52.468;13.342;2023-02-15T01:16:08;34.97;;;19.70;;
4961;SDS011;2496;52.468;13.342;2023-02-15T01:18:35;38.50;;;19.93;;
4961;SDS011;2496;52.468;13.342;2023-02-15T01:21:08;35.47;;;20.00;;
4961;SDS011;2496;52.468;13.342;2023-02-15T01:23:38;39.63;;;20.77;;
4961;SDS011;2496;52.468;13.342;2023-02-15T01:26:06;44.63;;;20.97;;
4961;SDS011;2496;52.468;13.342;2023-02-15T01:28:33;41.13;;;20.37;;
4961;SDS011;2496;52.468;13.342;2023-02-15T01:31:03;44.50;;;21.90;;
4961;SDS011;2496;52.468;13.342;2023-02-15T01:33:33;41.63;;;22.90;;
4961;SDS011;2496;52.468;13.342;2023-02-15T01:36:01;41.33;;;21.30;;
4961;SDS011;2496;52.468;13.342;2023-02-15T01:38:28;37.63;;;20.63;;
4961;SDS011;2496;52.468;13.342;2023-02-15T01:40:55;47.43;;;23.07;;
4961;SDS011;2496;52.468;13.342;2023-02-15T01:43:44;46.73;;;23.13;;
4961;SDS011;2496;52.468;13.342;2023-02-15T01:46:13;42.43;;;22.50;;
4961;SDS011;2496;52.468;13.342;2023-02-15T01:48:43;44.40;;;22.07;;
4961;SDS011;2496;52.468;13.342;2023-02-15T01:51:14;43.57;;;21.23;;
4961;SDS011;2496;52.468;13.342;2023-02-15T01:53:47;41.47;;;22.27;;
4961;SDS011;2496;52.468;13.342;2023-02-15T01:56:18;44.77;;;23.63;;
4961;SDS011;2496;52.468;13.342;2023-02-15T01:58:47;44.10;;;21.43;;
4961;SDS011;2496;52.468;13.342;2023-02-15T02:01:17;41.13;;;21.70;;
4961;SDS011;2496;52.468;13.342;2023-02-15T02:03:49;48.50;;;23.27;;
4961;SDS011;2496;52.468;13.342;2023-02-15T02:06:22;40.70;;;20.70;;
4961;SDS011;2496;52.468;13.342;2023-02-15T02:08:50;48.43;;;21.87;;
4961;SDS011;2496;52.468;13.342;2023-02-15T02:11:19;41.80;;;23.60;;
4961;SDS011;2496;52.468;13.342;2023-02-15T02:13:47;51.70;;;25.10;;
4961;SDS011;2496;52.468;13.342;2023-02-15T02:16:17;43.50;;;23.00;;
4961;SDS011;2496;52.468;13.342;2023-02-15T02:18:52;46.67;;;23.60;;
4961;SDS011;2496;52.468;13.342;2023-02-15T02:25:00;48.83;;;25.83;;
4961;SDS011;2496;52.468;13.342;2023-02-15T02:27:41;49.87;;;23.97;;
4961;SDS011;2496;52.468;13.342;2023-02-15T02:30:35;53.10;;;25.50;;
4961;SDS011;2496;52.468;13.342;2023-02-15T02:36:20;43.07;;;23.87;;
4961;SDS011;2496;52.468;13.342;2023-02-15T02:39:06;54.03;;;26.57;;
4961;SDS011;2496;52.468;13.342;2023-02-15T02:41:42;57.70;;;27.40;;
4961;SDS011;2496;52.468;13.342;2023-02-15T02:44:16;54.23;;;26.23;;
4961;SDS011;2496;52.468;13.342;2023-02-15T02:46:50;57.30;;;27.00;;
4961;SDS011;2496;52.468;13.342;2023-02-15T02:49:29;55.73;;;27.20;;
4961;SDS011;2496;52.468;13.342;2023-02-15T02:51:57;60.90;;;27.20;;
4961;SDS011;2496;52.468;13.342;2023-02-15T02:54:25;56.67;;;27.00;;
4961;SDS011;2496;52.468;13.342;2023-02-15T02:56:54;61.40;;;28.00;;
4961;SDS011;2496;52.468;13.342;2023-02-15T02:59:23;65.60;;;30.37;;
4961;SDS011;2496;52.468;13.342;2023-02-15T03:01:55;68.87;;;29.00;;
4961;SDS011;2496;52.468;13.342;2023-02-15T03:04:27;63.90;;;28.17;;
4961;SDS011;2496;52.468;13.342;2023-02-15T03:07:00;63.60;;;29.60;;
4961;SDS011;2496;52.468;13.342;2023-02-15T03:09:31;61.70;;;28.97;;
4961;SDS011;2496;52.468;13.342;2023-02-15T03:12:09;63.97;;;28.87;;
4961;SDS011;2496;52.468;13.342;2023-02-15T03:14:42;67.37;;;28.83;;
4961;SDS011;2496;52.468;13.342;2023-02-15T03:17:13;67.63;;;29.93;;
4961;SDS011;2496;52.468;13.342;2023-02-15T03:19:46;64.93;;;30.43;;
4961;SDS011;2496;52.468;13.342;2023-02-15T03:22:20;59.83;;;30.40;;
4961;SDS011;2496;52.468;13.342;2023-02-15T03:24:55;70.80;;;29.40;;
4961;SDS011;2496;52.468;13.342;2023-02-15T03:27:30;65.47;;;29.33;;
4961;SDS011;2496;52.468;13.342;2023-02-15T03:30:03;63.63;;;29.57;;
4961;SDS011;2496;52.468;13.342;2023-02-15T03:32:36;59.87;;;28.53;;
4961;SDS011;2496;52.468;13.342;2023-02-15T03:35:07;60.40;;;29.90;;
4961;SDS011;2496;52.468;13.342;2023-02-15T03:37:35;60.87;;;29.40;;
4961;SDS011;2496;52.468;13.342;2023-02-15T03:40:06;65.03;;;29.80;;
4961;SDS011;2496;52.468;13.342;2023-02-15T03:42:58;61.63;;;29.67;;
4961;SDS011;2496;52.468;13.342;2023-02-15T03:45:31;63.27;;;27.03;;
4961;SDS011;2496;52.468;13.342;2023-02-15T03:48:00;64.60;;;28.20;;
4961;SDS011;2496;52.468;13.342;2023-02-15T03:50:29;63.23;;;28.80;;
4961;SDS011;2496;52.468;13.342;2023-02-15T03:53:17;68.93;;;30.47;;
4961;SDS011;2496;52.468;13.342;2023-02-15T03:55:47;57.83;;;27.40;;
4961;SDS011;2496;52.468;13.342;2023-02-15T03:58:15;66.60;;;29.60;;
4961;SDS011;2496;52.468;13.342;2023-02-15T04:01:00;64.97;;;27.53;;
4961;SDS011;2496;52.468;13.342;2023-02-15T04:03:54;72.17;;;29.90;;
4961;SDS011;2496;52.468;13.342;2023-02-15T04:06:27;79.27;;;29.70;;
4961;SDS011;2496;52.468;13.342;2023-02-15T04:08:55;66.47;;;29.03;;
4961;SDS011;2496;52.468;13.342;2023-02-15T04:11:40;66.40;;;28.70;;
4961;SDS011;2496;52.468;13.342;2023-02-15T04:14:06;66.70;;;29.60;;
4961;SDS011;2496;52.468;13.342;2023-02-15T04:16:47;68.90;;;30.50;;
4961;SDS011;2496;52.468;13.342;2023-02-15T04:19:15;78.77;;;33.27;;
4961;SDS011;2496;52.468;13.342;2023-02-15T04:22:00;66.73;;;29.50;;
4961;SDS011;2496;52.468;13.342;2023-02-15T04:24:45;59.50;;;28.33;;
4961;SDS011;2496;52.468;13.342;2023-02-15T04:27:29;66.77;;;28.90;;
4961;SDS011;2496;52.468;13.342;2023-02-15T04:29:56;66.37;;;30.27;;
4961;SDS011;2496;52.468;13.342;2023-02-15T04:32:23;68.70;;;29.50;;
4961;SDS011;2496;52.468;13.342;2023-02-15T04:34:50;60.27;;;27.73;;
4961;SDS011;2496;52.468;13.342;2023-02-15T04:37:19;67.97;;;29.53;;
4961;SDS011;2496;52.468;13.342;2023-02-15T04:39:46;63.83;;;28.10;;
4961;SDS011;2496;52.468;13.342;2023-02-15T04:42:15;63.50;;;27.80;;
4961;SDS011;2496;52.468;13.342;2023-02-15T04:44:42;65.10;;;30.20;;
4961;SDS011;2496;52.468;13.342;2023-02-15T04:47:09;63.60;;;29.97;;
4961;SDS011;2496;52.468;13.342;2023-02-15T04:49:36;63.80;;;29.63;;
4961;SDS011;2496;52.468;13.342;2023-02-15T04:52:03;73.27;;;28.83;;
4961;SDS011;2496;52.468;13.342;2023-02-15T04:54:31;72.73;;;31.83;;
4961;SDS011;2496;52.468;13.342;2023-02-15T04:56:58;65.17;;;30.57;;
4961;SDS011;2496;52.468;13.342;2023-02-15T04:59:25;71.47;;;28.93;;
4961;SDS011;2496;52.468;13.342;2023-02-15T05:01:52;73.87;;;30.80;;
4961;SDS011;2496;52.468;13.342;2023-02-15T05:04:19;76.10;;;30.03;;
4961;SDS011;2496;52.468;13.342;2023-02-15T05:06:46;66.43;;;28.30;;
4961;SDS011;2496;52.468;13.342;2023-02-15T05:09:13;71.60;;;28.17;;
4961;SDS011;2496;52.468;13.342;2023-02-15T05:11:42;68.13;;;30.63;;
4961;SDS011;2496;52.468;13.342;2023-02-15T05:14:09;63.07;;;28.57;;
4961;SDS011;2496;52.468;13.342;2023-02-15T05:16:36;64.97;;;27.97;;
4961;SDS011;2496;52.468;13.342;2023-02-15T05:19:03;62.20;;;28.37;;
4961;SDS011;2496;52.468;13.342;2023-02-15T05:21:30;67.93;;;29.80;;
4961;SDS011;2496;52.468;13.342;2023-02-15T05:23:58;62.60;;;28.70;;
4961;SDS011;2496;52.468;13.342;2023-02-15T05:26:25;67.93;;;27.93;;
4961;SDS011;2496;52.468;13.342;2023-02-15T05:29:10;59.10;;;26.43;;
4961;SDS011;2496;52.468;13.342;2023-02-15T05:31:37;64.03;;;28.67;;
4961;SDS011;2496;52.468;13.342;2023-02-15T05:34:05;65.40;;;26.33;;
4961;SDS011;2496;52.468;13.342;2023-02-15T05:36:32;64.47;;;26.80;;
4961;SDS011;2496;52.468;13.342;2023-02-15T05:38:59;68.57;;;29.00;;
4961;SDS011;2496;52.468;13.342;2023-02-15T05:41:26;73.00;;;28.33;;
4961;SDS011;2496;52.468;13.342;2023-02-15T05:43:54;66.23;;;29.70;;
4961;SDS011;2496;52.468;13.342;2023-02-15T05:46:23;69.53;;;29.83;;
4961;SDS011;2496;52.468;13.342;2023-02-15T05:48:50;76.37;;;30.67;;
4961;SDS011;2496;52.468;13.342;2023-02-15T05:51:17;74.67;;;32.07;;
4961;SDS011;2496;52.468;13.342;2023-02-15T05:53:44;66.80;;;28.70;;
4961;SDS011;2496;52.468;13.342;2023-02-15T05:56:11;106.80;;;30.47;;
4961;SDS011;2496;52.468;13.342;2023-02-15T05:58:39;77.47;;;28.93;;
4961;SDS011;2496;52.468;13.342;2023-02-15T06:01:07;82.10;;;29.30;;
4961;SDS011;2496;52.468;13.342;2023-02-15T06:03:36;75.83;;;28.07;;
4961;SDS011;2496;52.468;13.342;2023-02-15T06:06:03;91.47;;;31.87;;
4961;SDS011;2496;52.468;13.342;2023-02-15T06:08:31;82.80;;;30.80;;
4961;SDS011;2496;52.468;13.342;2023-02-15T06:10:58;142.00;;;31.73;;
4961;SDS011;2496;52.468;13.342;2023-02-15T06:13:25;106.47;;;29.80;;
4961;SDS011;2496;52.468;13.342;2023-02-15T06:15:52;103.07;;;29.27;;
4961;SDS011;2496;52.468;13.342;2023-02-15T06:18:19;148.17;;;33.17;;
4961;SDS011;2496;52.468;13.342;2023-02-15T06:20:48;93.30;;;29.67;;
4961;SDS011;2496;52.468;13.342;2023-02-15T06:23:15;103.37;;;31.77;;
4961;SDS011;2496;52.468;13.342;2023-02-15T06:25:43;199.10;;;36.20;;
4961;SDS011;2496;52.468;13.342;2023-02-15T06:28:11;112.70;;;30.70;;
4961;SDS011;2496;52.468;13.342;2023-02-15T06:30:38;108.23;;;29.33;;
4961;SDS011;2496;52.468;13.342;2023-02-15T06:33:05;151.87;;;32.40;;
4961;SDS011;2496;52.468;13.342;2023-02-15T06:35:32;116.83;;;31.60;;
4961;SDS011;2496;52.468;13.342;2023-02-15T06:38:00;88.10;;;31.77;;
4961;SDS011;2496;52.468;13.342;2023-02-15T06:40:27;100.27;;;31.40;;
4961;SDS011;2496;52.468;13.342;2023-02-15T06:42:54;140.40;;;28.80;;
4961;SDS011;2496;52.468;13.342;2023-02-15T06:45:21;119.60;;;35.30;;
4961;SDS011;2496;52.468;13.342;2023-02-15T06:47:48;128.00;;;30.27;;
4961;SDS011;2496;52.468;13.342;2023-02-15T06:50:15;105.20;;;30.53;;
4961;SDS011;2496;52.468;13.342;2023-02-15T06:52:42;184.70;;;42.67;;
4961;SDS011;2496;52.468;13.342;2023-02-15T06:55:10;133.77;;;29.73;;
4961;SDS011;2496;52.468;13.342;2023-02-15T06:57:37;182.20;;;37.87;;
4961;SDS011;2496;52.468;13.342;2023-02-15T07:00:05;155.67;;;31.57;;
4961;SDS011;2496;52.468;13.342;2023-02-15T07:02:33;107.70;;;33.60;;
4961;SDS011;2496;52.468;13.342;2023-02-15T07:05:00;165.43;;;33.43;;
4961;SDS011;2496;52.468;13.342;2023-02-15T07:07:27;118.40;;;29.47;;
4961;SDS011;2496;52.468;13.342;2023-02-15T07:09:54;72.40;;;28.40;;
4961;SDS011;2496;52.468;13.342;2023-02-15T07:12:22;74.20;;;28.83;;
4961;SDS011;2496;52.468;13.342;2023-02-15T07:15:07;62.33;;;26.60;;
4961;SDS011;2496;52.468;13.342;2023-02-15T07:17:34;67.30;;;27.20;;
4961;SDS011;2496;52.468;13.342;2023-02-15T07:20:02;85.63;;;28.80;;
4961;SDS011;2496;52.468;13.342;2023-02-15T07:22:30;97.50;;;29.60;;
4961;SDS011;2496;52.468;13.342;2023-02-15T07:24:59;104.10;;;30.57;;
4961;SDS011;2496;52.468;13.342;2023-02-15T07:27:27;77.63;;;26.67;;
4961;SDS011;2496;52.468;13.342;2023-02-15T07:29:54;87.70;;;27.57;;
4961;SDS011;2496;52.468;13.342;2023-02-15T07:32:21;69.77;;;24.73;;
4961;SDS011;2496;52.468;13.342;2023-02-15T07:34:48;111.77;;;24.37;;
4961;SDS011;2496;52.468;13.342;2023-02-15T07:37:15;112.60;;;27.63;;
4961;SDS011;2496;52.468;13.342;2023-02-15T07:39:42;88.73;;;25.00;;
4961;SDS011;2496;52.468;13.342;2023-02-15T07:42:09;56.80;;;26.03;;
4961;SDS011;2496;52.468;13.342;2023-02-15T07:44:37;75.63;;;26.73;;
4961;SDS011;2496;52.468;13.342;2023-02-15T07:47:04;133.23;;;27.20;;
4961;SDS011;2496;52.468;13.342;2023-02-15T07:49:31;60.30;;;25.07;;
4961;SDS011;2496;52.468;13.342;2023-02-15T07:51:58;59.87;;;24.40;;
4961;SDS011;2496;52.468;13.342;2023-02-15T07:54:27;97.40;;;26.67;;
4961;SDS011;2496;52.468;13.342;2023-02-15T07:56:54;57.53;;;24.30;;
4961;SDS011;2496;52.468;13.342;2023-02-15T07:59:21;54.17;;;24.63;;
4961;SDS011;2496;52.468;13.342;2023-02-15T08:01:50;65.80;;;25.53;;
4961;SDS011;2496;52.468;13.342;2023-02-15T08:04:19;57.90;;;23.20;;
4961;SDS011;2496;52.468;13.342;2023-02-15T08:06:46;69.93;;;25.73;;
4961;SDS011;2496;52.468;13.342;2023-02-15T08:09:12;66.77;;;26.00;;
4961;SDS011;2496;52.468;13.342;2023-02-15T08:11:39;68.73;;;24.90;;
4961;SDS011;2496;52.468;13.342;2023-02-15T08:14:08;53.13;;;25.57;;
4961;SDS011;2496;52.468;13.342;2023-02-15T08:16:36;69.83;;;27.10;;
4961;SDS011;2496;52.468;13.342;2023-02-15T08:19:07;61.43;;;27.40;;
4961;SDS011;2496;52.468;13.342;2023-02-15T08:21:35;61.33;;;27.50;;
4961;SDS011;2496;52.468;13.342;2023-02-15T08:24:04;60.20;;;26.60;;
4961;SDS011;2496;52.468;13.342;2023-02-15T08:26:32;61.93;;;23.63;;
4961;SDS011;2496;52.468;13.342;2023-02-15T08:29:00;66.07;;;25.53;;
4961;SDS011;2496;52.468;13.342;2023-02-15T08:31:28;63.87;;;27.13;;
4961;SDS011;2496;52.468;13.342;2023-02-15T08:33:56;66.23;;;23.57;;
4961;SDS011;2496;52.468;13.342;2023-02-15T08:36:25;64.73;;;24.57;;
4961;SDS011;2496;52.468;13.342;2023-02-15T08:38:54;62.70;;;26.87;;
4961;SDS011;2496;52.468;13.342;2023-02-15T08:41:21;65.10;;;27.43;;
4961;SDS011;2496;52.468;13.342;2023-02-15T08:43:52;57.53;;;25.13;;
4961;SDS011;2496;52.468;13.342;2023-02-15T08:46:24;49.10;;;24.23;;
4961;SDS011;2496;52.468;13.342;2023-02-15T08:48:54;66.57;;;24.77;;
4961;SDS011;2496;52.468;13.342;2023-02-15T08:51:22;47.77;;;22.13;;
4961;SDS011;2496;52.468;13.342;2023-02-15T08:53:52;61.00;;;25.40;;
4961;SDS011;2496;52.468;13.342;2023-02-15T08:56:21;58.10;;;23.37;;
4961;SDS011;2496;52.468;13.342;2023-02-15T08:58:51;42.90;;;22.33;;
4961;SDS011;2496;52.468;13.342;2023-02-15T09:01:20;48.53;;;23.70;;
4961;SDS011;2496;52.468;13.342;2023-02-15T09:03:48;54.20;;;23.23;;
4961;SDS011;2496;52.468;13.342;2023-02-15T09:06:18;47.77;;;23.00;;
4961;SDS011;2496;52.468;13.342;2023-02-15T09:08:48;53.50;;;24.53;;
4961;SDS011;2496;52.468;13.342;2023-02-15T09:11:16;46.37;;;22.60;;
4961;SDS011;2496;52.468;13.342;2023-02-15T09:13:48;47.00;;;23.87;;
4961;SDS011;2496;52.468;13.342;2023-02-15T09:16:16;47.00;;;22.47;;
4961;SDS011;2496;52.468;13.342;2023-02-15T09:18:43;48.10;;;20.87;;
4961;SDS011;2496;52.468;13.342;2023-02-15T09:21:11;42.90;;;22.27;;
4961;SDS011;2496;52.468;13.342;2023-02-15T09:23:39;44.27;;;21.97;;
4961;SDS011;2496;52.468;13.342;2023-02-15T09:26:09;45.63;;;22.40;;
4961;SDS011;2496;52.468;13.342;2023-02-15T09:28:37;49.63;;;21.07;;
4961;SDS011;2496;52.468;13.342;2023-02-15T09:31:06;48.07;;;22.50;;
4961;SDS011;2496;52.468;13.342;2023-02-15T09:33:38;41.40;;;20.10;;
4961;SDS011;2496;52.468;13.342;2023-02-15T09:36:14;38.37;;;20.23;;
4961;SDS011;2496;52.468;13.342;2023-02-15T09:38:42;46.70;;;21.27;;
4961;SDS011;2496;52.468;13.342;2023-02-15T09:41:18;45.03;;;21.23;;
4961;SDS011;2496;52.468;13.342;2023-02-15T09:44:05;46.00;;;21.73;;
4961;SDS011;2496;52.468;13.342;2023-02-15T09:46:44;48.20;;;21.67;;
4961;SDS011;2496;52.468;13.342;2023-02-15T09:49:23;43.87;;;20.13;;
4961;SDS011;2496;52.468;13.342;2023-02-15T09:52:10;42.60;;;20.40;;
4961;SDS011;2496;52.468;13.342;2023-02-15T09:54:53;43.17;;;21.53;;
4961;SDS011;2496;52.468;13.342;2023-02-15T09:57:34;40.97;;;22.30;;
4961;SDS011;2496;52.468;13.342;2023-02-15T10:00:07;44.10;;;21.17;;
4961;SDS011;2496;52.468;13.342;2023-02-15T10:02:48;46.50;;;21.60;;
4961;SDS011;2496;52.468;13.342;2023-02-15T10:05:32;44.83;;;22.40;;
4961;SDS011;2496;52.468;13.342;2023-02-15T10:11:11;46.20;;;20.40;;
4961;SDS011;2496;52.468;13.342;2023-02-15T10:14:06;42.27;;;21.10;;
4961;SDS011;2496;52.468;13.342;2023-02-15T10:16:47;43.67;;;21.50;;
4961;SDS011;2496;52.468;13.342;2023-02-15T10:19:23;48.43;;;20.47;;
4961;SDS011;2496;52.468;13.342;2023-02-15T10:21:59;43.93;;;19.73;;
4961;SDS011;2496;52.468;13.342;2023-02-15T10:27:37;40.10;;;21.33;;
4961;SDS011;2496;52.468;13.342;2023-02-15T10:30:12;40.67;;;22.37;;
4961;SDS011;2496;52.468;13.342;2023-02-15T10:32:45;44.50;;;22.10;;
4961;SDS011;2496;52.468;13.342;2023-02-15T10:35:20;41.60;;;22.13;;
4961;SDS011;2496;52.468;13.342;2023-02-15T10:37:58;46.77;;;21.23;;
4961;SDS011;2496;52.468;13.342;2023-02-15T10:40:33;39.40;;;21.00;;
4961;SDS011;2496;52.468;13.342;2023-02-15T10:43:12;42.77;;;21.73;;
4961;SDS011;2496;52.468;13.342;2023-02-15T10:46:06;41.27;;;22.37;;
4961;SDS011;2496;52.468;13.342;2023-02-15T10:48:59;45.97;;;22.03;;
4961;SDS011;2496;52.468;13.342;2023-02-15T10:51:44;46.73;;;21.30;;
4961;SDS011;2496;52.468;13.342;2023-02-15T10:54:22;45.83;;;22.27;;
4961;SDS011;2496;52.468;13.342;2023-02-15T10:57:00;47.10;;;21.90;;
4961;SDS011;2496;52.468;13.342;2023-02-15T10:59:42;47.43;;;22.17;;
4961;SDS011;2496;52.468;13.342;2023-02-15T11:02:35;44.37;;;22.47;;
4961;SDS011;2496;52.468;13.342;2023-02-15T11:05:26;41.20;;;21.77;;
4961;SDS011;2496;52.468;13.342;2023-02-15T11:08:06;45.53;;;22.03;;
4961;SDS011;2496;52.468;13.342;2023-02-15T11:10:37;43.83;;;21.70;;
4961;SDS011;2496;52.468;13.342;2023-02-15T11:13:09;48.90;;;23.53;;
4961;SDS011;2496;52.468;13.342;2023-02-15T11:15:40;53.27;;;25.30;;
4961;SDS011;2496;52.468;13.342;2023-02-15T11:18:13;43.63;;;21.40;;
4961;SDS011;2496;52.468;13.342;2023-02-15T11:20:48;36.80;;;20.70;;
4961;SDS011;2496;52.468;13.342;2023-02-15T11:23:20;42.37;;;22.30;;
4961;SDS011;2496;52.468;13.342;2023-02-15T11:25:52;38.23;;;21.40;;
4961;SDS011;2496;52.468;13.342;2023-02-15T11:28:24;46.60;;;22.43;;
4961;SDS011;2496;52.468;13.342;2023-02-15T11:30:58;45.60;;;22.47;;
4961;SDS011;2496;52.468;13.342;2023-02-15T11:33:31;43.33;;;22.63;;
4961;SDS011;2496;52.468;13.342;2023-02-15T11:36:04;38.27;;;18.63;;
4961;SDS011;2496;52.468;13.342;2023-02-15T11:38:35;45.10;;;22.97;;
4961;SDS011;2496;52.468;13.342;2023-02-15T11:41:05;35.83;;;19.47;;
4961;SDS011;2496;52.468;13.342;2023-02-15T11:43:38;36.53;;;19.03;;
4961;SDS011;2496;52.468;13.342;2023-02-15T11:46:13;49.53;;;22.73;;
4961;SDS011;2496;52.468;13.342;2023-02-15T11:48:42;43.33;;;21.17;;
4961;SDS011;2496;52.468;13.342;2023-02-15T11:51:11;35.73;;;21.13;;
4961;SDS011;2496;52.468;13.342;2023-02-15T11:53:41;34.50;;;19.33;;
4961;SDS011;2496;52.468;13.342;2023-02-15T11:56:12;43.87;;;20.70;;
4961;SDS011;2496;52.468;13.342;2023-02-15T11:58:43;46.70;;;22.03;;
4961;SDS011;2496;52.468;13.342;2023-02-15T12:01:14;40.70;;;20.60;;
4961;SDS011;2496;52.468;13.342;2023-02-15T12:03:50;32.63;;;17.77;;
4961;SDS011;2496;52.468;13.342;2023-02-15T12:06:20;32.97;;;18.37;;
4961;SDS011;2496;52.468;13.342;2023-02-15T12:08:53;33.93;;;18.47;;
4961;SDS011;2496;52.468;13.342;2023-02-15T12:11:27;29.30;;;17.40;;
4961;SDS011;2496;52.468;13.342;2023-02-15T12:14:00;33.17;;;18.57;;
4961;SDS011;2496;52.468;13.342;2023-02-15T12:16:32;36.13;;;20.57;;
4961;SDS011;2496;52.468;13.342;2023-02-15T12:19:12;36.50;;;19.07;;
4961;SDS011;2496;52.468;13.342;2023-02-15T12:21:51;38.23;;;19.20;;
4961;SDS011;2496;52.468;13.342;2023-02-15T12:24:20;31.17;;;16.73;;
4961;SDS011;2496;52.468;13.342;2023-02-15T12:26:55;32.70;;;18.87;;
4961;SDS011;2496;52.468;13.342;2023-02-15T12:29:26;32.73;;;16.90;;
4961;SDS011;2496;52.468;13.342;2023-02-15T12:31:56;33.97;;;18.67;;
4961;SDS011;2496;52.468;13.342;2023-02-15T12:34:26;31.00;;;17.07;;
4961;SDS011;2496;52.468;13.342;2023-02-15T12:37:00;30.87;;;17.10;;
4961;SDS011;2496;52.468;13.342;2023-02-15T12:39:34;30.77;;;17.73;;
4961;SDS011;2496;52.468;13.342;2023-02-15T12:42:03;30.03;;;16.63;;
4961;SDS011;2496;52.468;13.342;2023-02-15T12:44:40;33.83;;;17.90;;
4961;SDS011;2496;52.468;13.342;2023-02-15T12:47:21;31.57;;;17.33;;
4961;SDS011;2496;52.468;13.342;2023-02-15T12:52:42;37.10;;;18.20;;
4961;SDS011;2496;52.468;13.342;2023-02-15T12:55:11;30.40;;;17.47;;
4961;SDS011;2496;52.468;13.342;2023-02-15T12:57:45;26.23;;;16.73;;
4961;SDS011;2496;52.468;13.342;2023-02-15T13:00:25;33.70;;;17.20;;
4961;SDS011;2496;52.468;13.342;2023-02-15T13:02:57;27.07;;;16.57;;
4961;SDS011;2496;52.468;13.342;2023-02-15T13:05:26;31.77;;;17.57;;
4961;SDS011;2496;52.468;13.342;2023-02-15T13:08:00;30.43;;;17.30;;
4961;SDS011;2496;52.468;13.342;2023-02-15T13:10:29;30.37;;;18.03;;
4961;SDS011;2496;52.468;13.342;2023-02-15T13:13:00;28.27;;;15.63;;
4961;SDS011;2496;52.468;13.342;2023-02-15T13:15:32;30.57;;;16.50;;
4961;SDS011;2496;52.468;13.342;2023-02-15T13:18:02;34.03;;;17.73;;
4961;SDS011;2496;52.468;13.342;2023-02-15T13:20:37;30.07;;;14.90;;
4961;SDS011;2496;52.468;13.342;2023-02-15T13:23:09;25.80;;;15.50;;
4961;SDS011;2496;52.468;13.342;2023-02-15T13:25:50;29.63;;;16.13;;
4961;SDS011;2496;52.468;13.342;2023-02-15T13:28:18;28.90;;;17.00;;
4961;SDS011;2496;52.468;13.342;2023-02-15T13:30:48;30.07;;;15.97;;
4961;SDS011;2496;52.468;13.342;2023-02-15T13:33:17;26.37;;;15.17;;
4961;SDS011;2496;52.468;13.342;2023-02-15T13:35:55;26.97;;;15.03;;
4961;SDS011;2496;52.468;13.342;2023-02-15T13:41:16;25.17;;;14.13;;
4961;SDS011;2496;52.468;13.342;2023-02-15T13:43:51;27.03;;;15.50;;
4961;SDS011;2496;52.468;13.342;2023-02-15T13:46:31;24.83;;;15.37;;
4961;SDS011;2496;52.468;13.342;2023-02-15T13:49:14;22.93;;;14.70;;
4961;SDS011;2496;52.468;13.342;2023-02-15T13:51:54;33.20;;;15.27;;
4961;SDS011;2496;52.468;13.342;2023-02-15T13:54:35;28.00;;;15.23;;
4961;SDS011;2496;52.468;13.342;2023-02-15T13:57:22;28.90;;;14.13;;
4961;SDS011;2496;52.468;13.342;2023-02-15T14:00:03;26.63;;;14.13;;
4961;SDS011;2496;52.468;13.342;2023-02-15T14:02:52;25.77;;;14.67;;
4961;SDS011;2496;52.468;13.342;2023-02-15T14:05:45;26.93;;;15.57;;
4961;SDS011;2496;52.468;13.342;2023-02-15T14:08:24;23.30;;;13.40;;
4961;SDS011;2496;52.468;13.342;2023-02-15T14:11:06;22.10;;;14.43;;
4961;SDS011;2496;52.468;13.342;2023-02-15T14:13:42;25.00;;;15.13;;
4961;SDS011;2496;52.468;13.342;2023-02-15T14:16:31;21.60;;;13.90;;
4961;SDS011;2496;52.468;13.342;2023-02-15T14:19:13;27.80;;;16.40;;
4961;SDS011;2496;52.468;13.342;2023-02-15T14:21:49;26.27;;;15.37;;
4961;SDS011;2496;52.468;13.342;2023-02-15T14:24:26;25.20;;;14.40;;
4961;SDS011;2496;52.468;13.342;2023-02-15T14:27:02;21.60;;;13.27;;
4961;SDS011;2496;52.468;13.342;2023-02-15T14:29:47;24.53;;;14.20;;
4961;SDS011;2496;52.468;13.342;2023-02-15T14:32:20;27.63;;;16.43;;
4961;SDS011;2496;52.468;13.342;2023-02-15T14:34:54;28.20;;;14.67;;
4961;SDS011;2496;52.468;13.342;2023-02-15T14:37:27;21.67;;;13.90;;
4961;SDS011;2496;52.468;13.342;2023-02-15T14:40:03;24.03;;;15.57;;
4961;SDS011;2496;52.468;13.342;2023-02-15T14:42:56;24.67;;;13.90;;
4961;SDS011;2496;52.468;13.342;2023-02-15T14:45:28;21.43;;;14.07;;
4961;SDS011;2496;52.468;13.342;2023-02-15T14:48:02;30.00;;;16.03;;
4961;SDS011;2496;52.468;13.342;2023-02-15T14:50:39;25.60;;;13.53;;
4961;SDS011;2496;52.468;13.342;2023-02-15T14:56:12;27.90;;;13.67;;
4961;SDS011;2496;52.468;13.342;2023-02-15T14:58:55;21.03;;;12.70;;
4961;SDS011;2496;52.468;13.342;2023-02-15T15:01:25;26.50;;;13.50;;
4961;SDS011;2496;52.468;13.342;2023-02-15T15:03:55;22.43;;;14.53;;
4961;SDS011;2496;52.468;13.342;2023-02-15T15:06:25;19.20;;;12.80;;
4961;SDS011;2496;52.468;13.342;2023-02-15T15:08:55;21.63;;;12.03;;
4961;SDS011;2496;52.468;13.342;2023-02-15T15:11:43;23.50;;;14.50;;
4961;SDS011;2496;52.468;13.342;2023-02-15T15:17:09;25.13;;;14.97;;
4961;SDS011;2496;52.468;13.342;2023-02-15T15:22:38;20.80;;;12.30;;
4961;SDS011;2496;52.468;13.342;2023-02-15T15:25:08;20.83;;;12.23;;
4961;SDS011;2496;52.468;13.342;2023-02-15T15:27:47;18.60;;;12.50;;
4961;SDS011;2496;52.468;13.342;2023-02-15T15:42:51;16.17;;;10.73;;